Time;durP1;ratioP1;P1;durP2;ratioP2;P2;SDS_P1;SDS_P2;PMS_P1;PMS_P2;Temp;Humidity;BMP_temperature;BMP_pressure;BME280_temperature;BME280_humidity;BME280_pressure;Samples;Min_cycle;Max_cycle;Signal;HPM_P1;HPM_P2
2021/07/25 00:01:47;;;;;;;15.32;7.22;;;;;;;24.43;43.22;100172.53;4405831;32;20058;-91
2021/07/25 00:04:14;;;;;;;15.95;7.87;;;;;;;24.29;43.33;100165.16;4400672;32;20086;-91
2021/07/25 00:06:40;;;;;;;13.68;7.82;;;;;;;24.37;43.15;100163.22;4401150;32;20042;-91
2021/07/25 00:09:06;;;;;;;13.55;7.05;;;;;;;24.46;43.10;100159.94;4397731;32;20097;-91
2021/07/25 00:11:32;;;;;;;14.23;7.80;;;;;;;24.36;43.18;100158.78;4394419;32;20070;-91
2021/07/25 00:14:02;;;;;;;17.37;7.70;;;;;;;24.46;43.08;100162.81;4397177;32;20039;-91
2021/07/25 00:16:29;;;;;;;13.35;7.25;;;;;;;24.48;42.97;100151.50;4390329;32;20038;-90
2021/07/25 00:18:54;;;;;;;13.70;6.80;;;;;;;24.42;43.18;100165.22;4395428;32;20026;-92
2021/07/25 00:21:20;;;;;;;12.60;6.95;;;;;;;24.46;43.05;100168.56;4396844;32;20068;-91
2021/07/25 00:23:48;;;;;;;15.63;7.43;;;;;;;24.51;43.12;100176.31;4397334;32;20035;-91
2021/07/25 00:26:17;;;;;;;13.90;7.55;;;;;;;24.47;43.04;100167.22;4395047;32;20087;-92
2021/07/25 00:28:44;;;;;;;14.20;8.05;;;;;;;24.50;42.92;100182.59;4394029;32;20077;-92
2021/07/25 00:31:10;;;;;;;13.62;7.22;;;;;;;24.51;42.99;100173.41;4394280;32;20082;-91
2021/07/25 00:33:36;;;;;;;12.85;7.40;;;;;;;24.46;42.97;100177.19;4394467;32;20127;-91
2021/07/25 00:36:05;;;;;;;13.10;7.95;;;;;;;24.23;43.50;100175.97;4398529;32;20469;-91
2021/07/25 00:38:31;;;;;;;12.95;7.78;;;;;;;24.46;43.20;100167.78;4395873;32;20056;-90
2021/07/25 00:41:07;;;;;;;12.75;7.00;;;;;;;24.31;43.24;100170.38;4394025;32;20051;-90
2021/07/25 00:43:33;;;;;;;16.20;8.23;;;;;;;24.53;42.82;100170.00;4398645;32;20077;-92
2021/07/25 00:45:58;;;;;;;14.15;7.10;;;;;;;24.22;43.37;100165.81;4397725;32;20072;-93
2021/07/25 00:48:25;;;;;;;13.20;7.22;;;;;;;24.15;43.55;100172.22;4395800;32;20021;-91
2021/07/25 00:50:53;;;;;;;17.50;8.20;;;;;;;24.12;43.80;100170.41;4395076;32;20374;-90
2021/07/25 00:53:21;;;;;;;15.25;7.30;;;;;;;24.24;43.64;100168.91;4399254;32;20027;-91
2021/07/25 00:55:47;;;;;;;24.83;8.52;;;;;;;24.10;44.02;100170.19;4395468;32;20053;-91
2021/07/25 00:58:13;;;;;;;13.80;7.37;;;;;;;24.01;44.14;100170.56;4392666;32;20116;-92
2021/07/25 01:00:40;;;;;;;14.82;7.10;;;;;;;23.99;44.25;100164.59;4413917;32;20041;-92
2021/07/25 01:03:36;;;;;;;15.02;7.07;;;;;;;23.87;44.48;100162.41;4413109;32;20058;-92
2021/07/25 01:11:24;;;;;;;16.20;7.70;;;;;;;24.27;44.08;100163.84;3999997;31;15015671;-73
2021/07/25 01:13:53;;;;;;;14.57;7.82;;;;;;;24.27;44.08;100164.94;4457874;32;20194;-73
2021/07/25 01:16:19;;;;;;;12.52;7.25;;;;;;;23.78;44.78;100159.94;4455987;32;20653;-73
2021/07/25 01:18:47;;;;;;;18.77;8.18;;;;;;;23.57;45.23;100159.69;4457702;32;20436;-73
2021/07/25 01:21:17;;;;;;;15.95;7.70;;;;;;;23.73;44.98;100158.69;4456166;32;20096;-73
2021/07/25 01:23:44;;;;;;;14.90;8.02;;;;;;;23.78;44.92;100154.97;4457019;32;20040;-73
2021/07/25 01:26:11;;;;;;;14.15;7.93;;;;;;;23.50;45.73;100151.66;4455841;32;20045;-73
2021/07/25 01:28:42;;;;;;;16.17;8.13;;;;;;;23.54;45.86;100150.03;4457788;32;20115;-73
2021/07/25 01:31:15;;;;;;;17.17;8.98;;;;;;;23.62;45.69;100144.47;4458016;32;20069;-73
2021/07/25 01:33:43;;;;;;;17.25;9.30;;;;;;;23.60;45.97;100143.47;4457117;32;20099;-73
2021/07/25 01:36:10;;;;;;;17.27;8.38;;;;;;;23.54;46.14;100140.66;4440442;32;20151;-73
2021/07/25 01:38:36;;;;;;;19.05;9.05;;;;;;;23.49;46.27;100132.91;4457236;32;20516;-73
2021/07/25 01:43:42;;;;;;;17.30;8.77;;;;;;;23.89;45.88;100136.75;3984846;32;15022111;-74
2021/07/25 01:46:08;;;;;;;20.27;9.40;;;;;;;23.89;45.88;100136.75;4440952;32;20086;-75
2021/07/25 01:48:36;;;;;;;17.90;8.32;;;;;;;23.49;46.34;100124.28;4434701;32;20346;-74
2021/07/25 01:51:02;;;;;;;14.73;7.90;;;;;;;23.49;46.41;100116.44;4436403;32;20081;-74
2021/07/25 01:53:28;;;;;;;16.15;8.85;;;;;;;23.49;46.37;100119.31;4441166;32;20120;-74
2021/07/25 01:55:53;;;;;;;18.23;8.77;;;;;;;23.43;46.37;100109.22;4441892;32;20025;-75
2021/07/25 01:58:19;;;;;;;14.23;8.30;;;;;;;23.41;46.28;100118.37;4439948;32;21697;-74
2021/07/25 02:00:45;;;;;;;14.35;8.18;;;;;;;23.50;46.30;100114.34;4436627;32;20128;-74
2021/07/25 02:03:10;;;;;;;12.93;8.23;;;;;;;23.38;46.53;100115.81;4422374;32;20694;-74
2021/07/25 02:05:36;;;;;;;16.90;8.43;;;;;;;23.49;46.20;100118.53;4426761;32;20465;-74
2021/07/25 02:08:04;;;;;;;13.48;7.87;;;;;;;23.67;45.99;100114.87;4422302;32;20317;-74
2021/07/25 02:10:29;;;;;;;15.70;8.55;;;;;;;23.75;45.82;100118.69;4423108;32;20070;-74
2021/07/25 02:12:56;;;;;;;16.48;8.30;;;;;;;23.72;45.85;100114.03;4424204;32;20530;-74
2021/07/25 02:15:22;;;;;;;19.27;9.20;;;;;;;23.15;47.22;100106.69;4423181;32;20086;-74
2021/07/25 02:17:47;;;;;;;16.45;9.25;;;;;;;23.51;46.17;100110.16;4421366;32;20077;-74
2021/07/25 02:20:13;;;;;;;15.25;8.65;;;;;;;23.50;46.08;100109.38;4423465;32;20137;-74
2021/07/25 02:22:39;;;;;;;18.48;9.75;;;;;;;23.58;46.08;100105.88;4423347;32;20026;-74
2021/07/25 02:25:05;;;;;;;23.90;10.20;;;;;;;23.43;46.23;100100.59;4424536;32;20072;-74
2021/07/25 02:27:31;;;;;;;16.52;9.02;;;;;;;23.54;45.99;100106.19;4424247;32;20073;-74
2021/07/25 02:29:56;;;;;;;20.52;9.48;;;;;;;23.58;45.90;100100.12;4422558;32;20074;-74
2021/07/25 02:32:22;;;;;;;17.98;9.52;;;;;;;23.64;45.75;100097.94;4426559;32;20096;-74
2021/07/25 02:34:47;;;;;;;17.35;9.50;;;;;;;23.68;45.68;100098.44;4422677;32;20041;-74
2021/07/25 02:37:14;;;;;;;17.77;9.82;;;;;;;23.60;45.74;100103.25;4424043;32;20038;-75
2021/07/25 02:39:40;;;;;;;19.50;9.45;;;;;;;23.68;45.66;100102.06;4422684;32;20077;-74
2021/07/25 02:42:07;;;;;;;17.50;9.60;;;;;;;23.62;45.85;100098.50;4421817;32;20093;-74
2021/07/25 02:44:33;;;;;;;15.18;9.05;;;;;;;23.67;45.77;100099.72;4424347;32;20100;-75
2021/07/25 02:46:59;;;;;;;18.10;9.82;;;;;;;23.46;45.90;100099.50;4423515;32;20422;-74
2021/07/25 02:49:24;;;;;;;18.27;8.18;;;;;;;23.52;45.84;100094.47;4423826;32;20049;-74
2021/07/25 02:51:50;;;;;;;16.02;8.43;;;;;;;23.51;45.58;100096.56;4422611;32;20110;-74
2021/07/25 02:54:16;;;;;;;16.30;8.35;;;;;;;23.79;45.14;100093.28;4417871;32;20536;-74
2021/07/25 02:56:41;;;;;;;14.07;9.25;;;;;;;23.95;44.89;100086.53;4409991;32;20078;-74
2021/07/25 02:59:07;;;;;;;14.87;8.45;;;;;;;23.90;45.04;100080.84;4412822;32;20307;-74
2021/07/25 03:01:33;;;;;;;17.42;7.60;;;;;;;23.89;44.84;100082.94;4412460;32;20154;-74
2021/07/25 03:03:58;;;;;;;17.33;8.35;;;;;;;23.98;44.87;100082.56;4413707;32;20104;-74
2021/07/25 03:06:25;;;;;;;13.65;8.48;;;;;;;24.08;44.71;100091.56;4413531;32;20552;-74
2021/07/25 03:08:50;;;;;;;13.15;8.10;;;;;;;24.09;44.67;100082.41;4414739;32;20131;-74
2021/07/25 03:11:16;;;;;;;16.58;8.10;;;;;;;24.15;44.58;100091.69;4413672;32;20413;-75
2021/07/25 03:13:41;;;;;;;16.77;7.82;;;;;;;24.23;44.46;100089.72;4412134;32;20069;-74
2021/07/25 03:16:08;;;;;;;13.88;8.43;;;;;;;24.12;44.63;100083.38;4411578;32;20375;-74
2021/07/25 03:18:35;;;;;;;16.08;7.45;;;;;;;24.14;44.75;100083.63;4411369;32;20030;-74
2021/07/25 03:21:02;;;;;;;13.62;7.75;;;;;;;24.15;44.71;100080.19;4413262;32;20034;-75
2021/07/25 03:23:28;;;;;;;16.37;8.20;;;;;;;23.98;45.14;100081.78;4414400;32;20038;-75
2021/07/25 03:25:54;;;;;;;19.15;9.07;;;;;;;24.06;44.78;100085.56;4413833;32;20078;-74
2021/07/25 03:28:21;;;;;;;14.00;8.65;;;;;;;24.06;45.04;100079.81;4413654;32;20030;-74
2021/07/25 03:30:47;;;;;;;19.35;8.75;;;;;;;24.12;44.99;100083.38;4411812;32;20423;-74
2021/07/25 03:33:13;;;;;;;14.73;8.43;;;;;;;24.11;44.82;100076.84;4413630;32;20085;-74
2021/07/25 03:35:39;;;;;;;15.45;8.18;;;;;;;24.17;44.65;100083.28;4411545;32;20049;-74
2021/07/25 03:38:05;;;;;;;17.62;8.45;;;;;;;24.27;44.36;100090.16;4413423;32;20066;-74
2021/07/25 03:40:31;;;;;;;13.68;7.78;;;;;;;24.13;44.61;100084.94;4412919;32;20045;-74
2021/07/25 03:42:57;;;;;;;15.27;7.97;;;;;;;24.29;44.29;100083.88;4412877;32;20562;-74
2021/07/25 03:45:23;;;;;;;14.27;8.65;;;;;;;24.33;44.25;100082.22;4411660;32;20190;-74
2021/07/25 03:47:49;;;;;;;15.23;7.78;;;;;;;24.50;43.84;100085.59;4411647;32;20064;-75
2021/07/25 03:50:16;;;;;;;16.15;7.32;;;;;;;24.42;43.89;100092.53;4411646;32;20095;-74
2021/07/25 03:52:41;;;;;;;10.10;6.87;;;;;;;24.24;44.11;100088.37;4412637;32;20034;-74
2021/07/25 03:55:08;;;;;;;13.48;8.55;;;;;;;24.40;43.86;100087.34;4412656;32;20034;-75
2021/07/25 03:57:35;;;;;;;15.55;8.25;;;;;;;24.41;43.87;100088.88;4414644;32;20038;-74
2021/07/25 04:00:03;;;;;;;15.63;8.10;;;;;;;24.51;43.78;100084.25;4407556;32;20108;-74
2021/07/25 04:02:28;;;;;;;14.85;8.57;;;;;;;24.53;43.63;100092.31;4414707;32;20034;-73
2021/07/25 04:04:54;;;;;;;12.30;7.53;;;;;;;24.27;44.00;100092.28;4411758;32;20102;-73
2021/07/25 04:07:20;;;;;;;15.85;8.35;;;;;;;24.45;43.69;100089.31;4413179;32;20108;-73
2021/07/25 04:09:45;;;;;;;18.58;8.45;;;;;;;24.46;43.75;100088.00;4410943;32;20109;-73
2021/07/25 04:12:11;;;;;;;14.95;8.65;;;;;;;24.50;43.59;100091.34;4411647;32;20077;-73
2021/07/25 04:14:36;;;;;;;17.12;8.27;;;;;;;24.43;43.66;100089.13;4412747;32;20116;-73
2021/07/25 04:17:03;;;;;;;15.63;8.77;;;;;;;24.64;43.08;100078.53;4412557;32;20061;-72
2021/07/25 04:19:28;;;;;;;17.60;8.23;;;;;;;24.74;43.04;100078.88;4410492;32;20056;-72
2021/07/25 04:21:56;;;;;;;13.93;7.95;;;;;;;24.78;42.96;100070.69;4410766;32;20116;-72
2021/07/25 04:24:22;;;;;;;16.75;8.07;;;;;;;24.84;42.73;100075.00;4412827;32;20097;-73
2021/07/25 04:26:48;;;;;;;17.05;8.38;;;;;;;25.01;42.48;100071.81;4410517;32;20023;-72
2021/07/25 04:29:14;;;;;;;12.32;7.93;;;;;;;24.93;42.55;100073.78;4411190;32;20421;-73
2021/07/25 04:31:40;;;;;;;15.23;7.15;;;;;;;24.69;43.01;100065.38;4414062;32;20108;-73
2021/07/25 04:34:06;;;;;;;13.62;8.32;;;;;;;24.68;43.12;100064.59;4412230;32;20026;-73
2021/07/25 04:36:32;;;;;;;16.60;7.82;;;;;;;24.86;42.78;100060.06;4409128;32;20430;-73
2021/07/25 04:38:59;;;;;;;14.70;8.18;;;;;;;24.82;42.79;100069.03;4408466;32;20100;-73
2021/07/25 04:41:28;;;;;;;12.98;7.65;;;;;;;24.98;42.69;100064.28;4409483;32;20022;-73
2021/07/25 04:44:18;;;;;;;14.15;7.78;;;;;;;25.05;42.53;100064.37;4410486;32;20072;-73
2021/07/25 04:46:47;;;;;;;14.85;8.18;;;;;;;25.15;42.32;100074.09;4411838;32;20562;-73
2021/07/25 04:49:15;;;;;;;17.02;7.95;;;;;;;25.15;42.25;100067.56;4413718;32;20156;-73
2021/07/25 04:51:43;;;;;;;20.12;8.13;;;;;;;25.16;42.34;100066.25;4408505;32;20500;-73
2021/07/25 04:54:12;;;;;;;14.95;7.65;;;;;;;25.15;42.38;100074.09;4411781;32;20053;-73
2021/07/25 04:56:57;;;;;;;18.05;8.07;;;;;;;25.11;42.34;100067.13;4409972;32;20026;-73
2021/07/25 04:59:44;;;;;;;14.55;7.60;;;;;;;25.12;42.37;100077.31;4410217;32;20074;-73
2021/07/25 05:02:11;;;;;;;15.32;8.50;;;;;;;25.36;41.86;100068.44;4410622;32;20146;-73
2021/07/25 05:04:38;;;;;;;13.90;7.68;;;;;;;24.98;42.52;100065.03;4411156;32;20427;-72
2021/07/25 05:07:07;;;;;;;13.05;7.75;;;;;;;24.85;42.92;100065.03;4412111;32;20474;-73
2021/07/25 05:09:33;;;;;;;12.43;7.85;;;;;;;25.16;42.27;100067.00;4411005;32;20089;-73
2021/07/25 05:12:17;;;;;;;15.70;7.60;;;;;;;25.10;42.25;100072.09;4411079;32;20124;-73
2021/07/25 05:20:16;;;;;;;13.43;7.28;;;;;;;25.45;41.92;100067.97;3983111;32;15022568;-74
2021/07/25 05:25:21;;;;;;;15.48;9.23;;;;;;;25.54;41.98;100073.28;3983658;32;15026541;-74
2021/07/25 05:27:48;;;;;;;15.93;7.78;;;;;;;25.54;41.98;100073.28;4440531;32;20080;-74
2021/07/25 05:30:16;;;;;;;14.85;7.45;;;;;;;25.25;42.23;100072.31;4434793;32;20034;-75
2021/07/25 05:32:42;;;;;;;15.50;8.15;;;;;;;25.05;42.37;100063.59;4435859;32;20523;-74
2021/07/25 05:35:09;;;;;;;14.30;8.10;;;;;;;24.83;42.84;100070.59;4437622;32;20759;-75
2021/07/25 05:37:35;;;;;;;12.68;7.35;;;;;;;24.87;42.75;100068.16;4434227;32;20433;-74
2021/07/25 05:40:01;;;;;;;13.30;7.60;;;;;;;25.08;42.19;100059.59;4434251;32;20017;-74
2021/07/25 05:42:27;;;;;;;11.57;7.00;;;;;;;25.22;42.08;100064.78;4434450;32;20075;-75
2021/07/25 05:44:53;;;;;;;12.73;7.57;;;;;;;25.22;42.10;100067.66;4436497;32;20041;-74
2021/07/25 05:47:18;;;;;;;12.63;7.35;;;;;;;25.17;42.11;100071.47;4438411;32;20454;-74
2021/07/25 05:49:44;;;;;;;13.07;6.68;;;;;;;25.31;41.81;100073.00;4432279;32;20520;-74
2021/07/25 05:52:10;;;;;;;14.77;7.20;;;;;;;25.32;41.76;100070.91;4433807;32;20040;-74
2021/07/25 05:54:35;;;;;;;13.52;7.53;;;;;;;25.50;41.47;100069.19;4434739;32;20460;-74
2021/07/25 05:57:01;;;;;;;16.23;6.93;;;;;;;25.37;41.60;100069.22;4437874;32;20083;-75
2021/07/25 05:59:28;;;;;;;15.82;6.97;;;;;;;25.55;41.39;100071.19;4434630;32;20034;-74
2021/07/25 06:01:54;;;;;;;11.45;7.05;;;;;;;25.71;41.07;100072.91;4434800;32;20056;-75
2021/07/25 06:04:20;;;;;;;10.20;6.53;;;;;;;25.84;40.74;100073.63;4435007;32;20045;-74
2021/07/25 06:06:46;;;;;;;12.30;6.30;;;;;;;25.99;40.23;100070.16;4431478;32;20056;-74
2021/07/25 06:09:11;;;;;;;13.40;6.82;;;;;;;26.09;40.21;100076.97;4432665;32;20141;-75
2021/07/25 06:11:38;;;;;;;13.90;6.97;;;;;;;26.01;40.17;100064.59;4431253;32;20573;-74
2021/07/25 06:14:05;;;;;;;15.00;7.10;;;;;;;26.11;40.04;100065.66;4433432;32;20104;-75
2021/07/25 06:16:31;;;;;;;10.95;7.20;;;;;;;26.14;40.05;100065.28;4431921;32;20088;-74
2021/07/25 06:18:57;;;;;;;11.48;6.57;;;;;;;26.28;39.63;100071.75;4432277;32;20089;-75
2021/07/25 06:21:26;;;;;;;15.38;6.35;;;;;;;26.02;39.90;100066.94;4431219;32;20060;-74
2021/07/25 06:23:53;;;;;;;12.75;6.30;;;;;;;25.77;40.40;100074.28;4432273;32;20395;-74
2021/07/25 06:26:19;;;;;;;11.77;6.75;;;;;;;25.97;39.86;100073.56;4431539;32;20042;-74
2021/07/25 06:28:49;;;;;;;15.18;6.62;;;;;;;26.28;39.37;100078.31;4432730;32;20132;-74
2021/07/25 06:31:15;;;;;;;13.85;6.18;;;;;;;26.24;39.54;100069.25;4434964;32;20096;-74
2021/07/25 06:33:41;;;;;;;11.55;6.87;;;;;;;26.37;39.36;100066.28;4432991;32;20385;-74
2021/07/25 06:36:10;;;;;;;13.02;6.50;;;;;;;26.45;39.05;100069.22;4424227;32;20034;-74
2021/07/25 06:38:37;;;;;;;9.80;6.35;;;;;;;26.62;38.75;100058.00;4422599;32;20038;-74
2021/07/25 06:41:02;;;;;;;15.25;7.03;;;;;;;26.42;39.10;100074.00;4422386;32;20507;-74
2021/07/25 06:43:28;;;;;;;13.07;6.40;;;;;;;26.36;39.16;100069.72;4422224;32;20438;-74
2021/07/25 06:45:54;;;;;;;10.98;6.00;;;;;;;26.65;38.68;100074.19;4422293;32;20486;-74
2021/07/25 06:48:23;;;;;;;10.85;5.87;;;;;;;26.80;38.13;100080.87;4423463;32;20388;-75
2021/07/25 06:50:51;;;;;;;10.38;6.37;;;;;;;26.90;38.12;100072.44;4418619;32;20081;-74
2021/07/25 06:53:18;;;;;;;9.25;5.43;;;;;;;27.15;37.66;100077.22;4422311;32;20432;-74
2021/07/25 06:55:45;;;;;;;13.80;6.12;;;;;;;27.20;37.53;100067.63;4422185;32;20056;-74
2021/07/25 06:58:11;;;;;;;11.05;6.22;;;;;;;27.27;37.44;100071.16;4421981;32;20076;-74
2021/07/25 07:00:37;;;;;;;11.15;5.95;;;;;;;27.14;37.12;100072.00;4424124;32;20021;-74
2021/07/25 07:03:03;;;;;;;11.50;6.10;;;;;;;27.51;36.74;100080.09;4422334;32;20042;-74
2021/07/25 07:05:30;;;;;;;9.13;5.72;;;;;;;27.73;36.36;100073.63;4421214;32;20070;-74
2021/07/25 07:08:00;;;;;;;12.07;6.10;;;;;;;28.11;35.77;100080.31;4420242;32;20018;-74
2021/07/25 07:10:43;;;;;;;9.68;5.95;;;;;;;28.56;35.06;100074.53;4421563;32;20077;-74
2021/07/25 07:13:11;;;;;;;11.48;5.87;;;;;;;28.71;34.76;100080.31;4422872;32;20053;-74
2021/07/25 07:15:41;;;;;;;13.00;5.55;;;;;;;28.84;34.34;100079.34;4420248;32;20466;-74
2021/07/25 07:18:07;;;;;;;9.02;6.30;;;;;;;28.85;34.17;100081.66;4422169;32;20060;-74
2021/07/25 07:20:32;;;;;;;8.10;5.25;;;;;;;28.65;34.11;100082.66;4422094;32;20165;-74
2021/07/25 07:23:01;;;;;;;10.95;5.55;;;;;;;28.91;33.61;100087.25;4419700;32;20044;-74
2021/07/25 07:25:32;;;;;;;9.07;5.90;;;;;;;28.95;33.82;100076.81;4425751;32;20103;-74
2021/07/25 07:27:58;;;;;;;11.93;5.97;;;;;;;28.90;33.91;100077.78;4421160;32;20464;-74
2021/07/25 07:30:24;;;;;;;9.68;5.70;;;;;;;28.36;34.44;100089.97;4421609;32;20569;-74
2021/07/25 07:32:50;;;;;;;7.78;5.03;;;;;;;28.03;35.18;100079.50;4421744;32;20069;-74
2021/07/25 07:35:15;;;;;;;11.52;5.87;;;;;;;27.96;35.18;100076.59;4422077;32;20182;-74
2021/07/25 07:37:41;;;;;;;11.10;5.30;;;;;;;27.99;35.13;100078.34;4422800;32;20405;-74
2021/07/25 07:40:08;;;;;;;9.65;5.50;;;;;;;28.07;34.87;100076.25;4418587;32;20093;-74
2021/07/25 07:42:33;;;;;;;10.55;5.75;;;;;;;28.24;34.91;100079.34;4421264;32;20100;-74
2021/07/25 07:44:59;;;;;;;8.43;5.20;;;;;;;28.26;34.74;100082.44;4420337;32;20583;-74
2021/07/25 07:47:25;;;;;;;14.40;6.50;;;;;;;28.01;35.30;100078.56;4417650;32;20101;-74
2021/07/25 07:49:52;;;;;;;8.18;5.18;;;;;;;27.82;35.73;100081.75;4418435;32;20650;-74
2021/07/25 07:52:18;;;;;;;8.15;5.57;;;;;;;27.95;35.55;100083.75;4423646;32;20073;-74
2021/07/25 07:54:44;;;;;;;9.55;5.10;;;;;;;28.40;34.84;100084.56;4425360;32;20423;-74
2021/07/25 07:57:10;;;;;;;10.90;6.00;;;;;;;28.58;34.57;100095.00;4421225;32;20396;-74
2021/07/25 07:59:36;;;;;;;9.48;5.87;;;;;;;28.70;34.39;100092.50;4422465;32;20055;-74
2021/07/25 08:02:02;;;;;;;9.02;5.85;;;;;;;29.10;33.67;100093.41;4422704;32;20093;-74
2021/07/25 08:04:28;;;;;;;8.43;5.80;;;;;;;29.18;33.41;100088.37;4419139;32;20099;-74
2021/07/25 08:06:54;;;;;;;11.95;5.70;;;;;;;29.28;33.37;100091.44;4421425;32;20061;-74
2021/07/25 08:09:20;;;;;;;8.80;5.57;;;;;;;29.48;33.09;100094.06;4419784;32;20121;-74
2021/07/25 08:11:46;;;;;;;10.07;5.07;;;;;;;29.73;32.86;100097.81;4422640;32;20022;-74
2021/07/25 08:14:13;;;;;;;12.18;5.75;;;;;;;30.01;32.52;100103.31;4421515;32;20073;-74
2021/07/25 08:16:40;;;;;;;10.65;5.35;;;;;;;30.32;32.05;100095.97;4420052;32;20060;-74
2021/07/25 08:19:07;;;;;;;12.25;5.70;;;;;;;30.60;31.47;100095.53;4420510;32;21092;-74
2021/07/25 08:21:32;;;;;;;7.65;5.60;;;;;;;30.33;32.08;100093.81;4421274;32;20125;-74
2021/07/25 08:23:58;;;;;;;9.82;5.60;;;;;;;30.68;31.76;100098.37;4419762;32;20049;-74
2021/07/25 08:26:23;;;;;;;9.15;6.00;;;;;;;31.08;30.97;100098.97;4418811;32;20034;-74
2021/07/25 08:28:49;;;;;;;9.63;5.35;;;;;;;31.60;30.32;100100.50;4422395;32;20174;-74
2021/07/25 08:31:15;;;;;;;11.45;6.00;;;;;;;32.12;29.34;100104.84;4421204;32;20076;-75
2021/07/25 08:33:40;;;;;;;9.88;5.78;;;;;;;32.39;29.13;100105.63;4419485;32;20540;-74
2021/07/25 08:36:06;;;;;;;9.90;6.05;;;;;;;31.98;29.40;100103.72;4421852;32;20116;-74
2021/07/25 08:38:32;;;;;;;12.20;5.50;;;;;;;32.26;29.18;100103.09;4419380;32;20078;-74
2021/07/25 08:41:11;;;;;;;12.98;6.25;;;;;;;32.63;28.91;100100.22;4418176;32;20030;-74
2021/07/25 08:43:41;;;;;;;10.13;6.10;;;;;;;32.22;29.31;100102.78;4418743;32;20116;-74
2021/07/25 08:46:13;;;;;;;10.60;5.85;;;;;;;32.12;29.54;100101.94;4418151;32;20087;-74
2021/07/25 08:48:45;;;;;;;11.95;6.47;;;;;;;31.84;29.90;100102.53;4418272;32;20114;-74
2021/07/25 08:51:16;;;;;;;12.07;6.18;;;;;;;30.32;32.20;100104.66;4416190;32;20103;-74
2021/07/25 08:53:49;;;;;;;14.35;5.93;;;;;;;30.52;32.06;100091.13;4418648;32;20136;-74
2021/07/25 08:56:17;;;;;;;10.23;6.07;;;;;;;30.36;32.28;100098.44;4421007;32;20076;-74
2021/07/25 08:58:46;;;;;;;8.95;5.35;;;;;;;29.54;33.69;100091.72;4417977;32;20062;-74
2021/07/25 09:01:14;;;;;;;11.43;5.62;;;;;;;29.74;33.59;100096.50;4419722;32;20318;-74
2021/07/25 09:03:40;;;;;;;10.63;5.57;;;;;;;29.82;33.53;100096.44;4422386;32;20374;-74
2021/07/25 09:06:08;;;;;;;10.15;6.00;;;;;;;29.59;33.86;100093.63;4418207;32;20148;-75
2021/07/25 09:08:35;;;;;;;11.18;5.68;;;;;;;29.76;33.83;100093.00;4417294;32;20033;-74
2021/07/25 09:11:07;;;;;;;9.77;6.28;;;;;;;29.50;34.30;100090.56;4414925;32;20415;-74
2021/07/25 09:13:33;;;;;;;10.13;5.85;;;;;;;29.74;33.99;100096.50;4422795;32;20069;-74
2021/07/25 09:15:59;;;;;;;15.65;6.25;;;;;;;29.21;34.74;100086.44;4421293;32;20034;-74
2021/07/25 09:18:25;;;;;;;10.27;6.28;;;;;;;29.47;34.38;100095.41;4420484;32;20086;-74
2021/07/25 09:20:51;;;;;;;12.70;6.05;;;;;;;29.56;34.07;100100.59;4419127;32;20077;-74
2021/07/25 09:23:20;;;;;;;9.40;5.80;;;;;;;29.60;34.03;100092.25;4421440;32;20069;-74
2021/07/25 09:28:23;;;;;;;9.30;6.37;;;;;;;30.00;33.98;100101.00;3984144;32;15022001;-74
2021/07/25 09:30:50;;;;;;;11.00;6.00;;;;;;;30.00;33.98;100101.00;4437772;32;20022;-74
2021/07/25 09:33:33;;;;;;;12.80;6.62;;;;;;;29.31;35.03;100096.06;4434220;32;20081;-75
2021/07/25 09:36:03;;;;;;;10.45;6.57;;;;;;;29.45;35.02;100103.16;4436812;32;20059;-74
2021/07/25 09:38:29;;;;;;;13.70;7.07;;;;;;;30.06;34.18;100104.44;4438519;32;20018;-74
2021/07/25 09:40:56;;;;;;;10.43;6.53;;;;;;;29.77;34.32;100101.13;4435752;32;20045;-74
2021/07/25 09:43:24;;;;;;;14.32;6.43;;;;;;;30.20;33.86;100108.63;4438582;32;20034;-74
2021/07/25 09:48:33;;;;;;;11.87;7.00;;;;;;;30.81;32.68;100109.69;4001605;31;15015432;-74
2021/07/25 09:51:02;;;;;;;11.90;7.00;;;;;;;30.81;32.68;100109.69;4457293;32;20115;-74
2021/07/25 09:53:46;;;;;;;12.88;6.22;;;;;;;30.35;33.10;100105.59;4453933;32;20375;-74
2021/07/25 09:58:48;;;;;;;11.73;6.12;;;;;;;31.20;31.77;100102.13;3956787;32;15722615;-74
2021/07/25 10:01:34;;;;;;;10.60;6.68;;;;;;;31.20;31.77;100102.13;4431533;32;20037;-73
2021/07/25 10:04:11;;;;;;;8.70;5.45;;;;;;;31.31;31.37;100102.41;4420657;32;20068;-73
2021/07/25 10:06:40;;;;;;;10.48;6.25;;;;;;;31.72;30.58;100106.56;4432574;32;20056;-73
2021/07/25 10:09:08;;;;;;;10.57;5.72;;;;;;;31.68;30.68;100112.03;4432002;32;20041;-73
2021/07/25 10:11:35;;;;;;;13.85;6.05;;;;;;;31.78;30.50;100107.81;4430232;32;20068;-74
2021/07/25 10:14:01;;;;;;;11.77;5.87;;;;;;;31.39;30.80;100103.09;4433617;32;20017;-74
2021/07/25 10:16:27;;;;;;;9.20;5.57;;;;;;;32.28;29.40;100102.47;4433377;32;20065;-74
2021/07/25 10:18:55;;;;;;;9.57;6.40;;;;;;;32.81;28.60;100102.38;4435816;32;20133;-74
2021/07/25 10:21:22;;;;;;;11.27;5.47;;;;;;;33.45;27.78;100098.69;4431379;32;20100;-74
2021/07/25 10:23:55;;;;;;;9.10;5.78;;;;;;;33.87;27.26;100098.22;4433607;32;20053;-74
2021/07/25 10:26:25;;;;;;;9.20;5.90;;;;;;;33.32;27.58;100095.44;4430882;32;20060;-74
2021/07/25 10:28:54;;;;;;;8.68;5.15;;;;;;;34.07;26.49;100102.59;4433609;32;20030;-74
2021/07/25 10:31:23;;;;;;;9.00;4.90;;;;;;;34.69;25.52;100097.63;4431884;32;20782;-74
2021/07/25 10:33:51;;;;;;;8.05;5.05;;;;;;;34.76;25.41;100114.19;4431075;32;20053;-74
2021/07/25 10:36:18;;;;;;;7.57;4.53;;;;;;;34.81;25.08;100108.00;4429406;32;20086;-74
2021/07/25 10:38:45;;;;;;;7.45;5.03;;;;;;;34.72;25.21;100108.09;4431992;32;20057;-74
2021/07/25 10:41:16;;;;;;;13.05;5.07;;;;;;;34.72;25.20;100108.09;4430097;32;20095;-74
2021/07/25 10:43:42;;;;;;;13.43;6.47;;;;;;;34.15;25.93;100106.88;4433852;32;20312;-74
2021/07/25 10:52:02;;;;;;;6.62;4.70;;;;;;;35.01;24.59;100088.22;3983654;32;15022139;-75
2021/07/25 10:54:29;;;;;;;8.68;4.70;;;;;;;35.01;24.59;100088.22;4431193;32;20037;-75
2021/07/25 10:57:10;;;;;;;8.18;5.15;;;;;;;35.23;23.93;100090.53;4442654;32;20084;-75
2021/07/25 10:59:55;;;;;;;8.43;4.90;;;;;;;36.05;22.84;100087.31;4437158;32;20133;-73
2021/07/25 11:07:35;;;;;;;7.65;4.80;;;;;;;38.42;20.50;100084.22;3985143;32;15022386;-75
2021/07/25 11:10:07;;;;;;;8.52;4.62;;;;;;;38.42;20.50;100084.22;4438348;32;20041;-74
2021/07/25 11:18:08;;;;;;;6.03;4.30;;;;;;;39.14;18.93;100073.47;3970272;32;15022726;-75
2021/07/25 11:26:36;;;;;;;8.45;4.65;;;;;;;39.17;19.13;100068.47;3983037;32;15024671;-73
2021/07/25 11:29:05;;;;;;;9.88;5.10;;;;;;;39.17;19.13;100068.47;4438202;32;20485;-74
2021/07/25 11:34:13;;;;;;;6.80;4.75;;;;;;;39.05;19.72;100074.44;3985385;32;15022606;-75
2021/07/25 11:36:39;;;;;;;8.02;4.87;;;;;;;39.05;19.72;100074.44;4437969;32;20079;-73
2021/07/25 11:39:07;;;;;;;6.93;4.60;;;;;;;38.10;20.30;100061.84;4433005;32;20068;-73
2021/07/25 11:41:35;;;;;;;5.20;4.50;;;;;;;38.28;20.09;100067.97;4435292;32;20045;-73
2021/07/25 11:46:45;;;;;;;10.23;4.70;;;;;;;39.59;18.29;100061.81;3984106;32;15022727;-75
2021/07/25 11:52:04;;;;;;;8.30;5.10;;;;;;;37.77;20.92;100058.44;3981674;31;15833677;-74
2021/07/25 11:54:33;;;;;;;5.35;4.37;;;;;;;37.77;20.92;100058.44;4466669;32;20488;-74
2021/07/25 11:57:07;;;;;;;7.35;5.30;;;;;;;38.50;20.29;100064.09;4463216;32;20385;-75
2021/07/25 11:59:37;;;;;;;7.25;4.78;;;;;;;38.47;20.03;100056.56;4451417;32;20037;-74
2021/07/25 12:02:05;;;;;;;9.68;5.15;;;;;;;36.89;21.81;100061.88;4454445;32;20104;-75
2021/07/25 12:04:35;;;;;;;7.53;4.45;;;;;;;37.44;21.32;100052.06;4446929;32;20412;-74
2021/07/25 12:09:44;;;;;;;7.10;4.70;;;;;;;40.87;17.78;100068.06;3983293;32;15023803;-74
2021/07/25 12:12:14;;;;;;;9.23;4.30;;;;;;;40.87;17.78;100068.06;4439468;32;20041;-74
2021/07/25 12:14:43;;;;;;;7.50;4.03;;;;;;;41.90;16.58;100069.59;4438326;32;20439;-74
2021/07/25 12:17:09;;;;;;;7.07;4.90;;;;;;;42.27;16.39;100067.41;4438911;32;20021;-74